Darstellungsparameter: Aktuell verwendete Einstellungen:
Skalierung der Graphiken ... ?
xyx+y,   Skalierungsfaktor:      Skalierung: Modus: x, Faktor: 1
Darstellungszeitraum ... ?
Vom - - bis: - -   Zeitraum: 13.07.2015 - 13.07.2015
Min/Max/Avg-Anzeige ... ?
Zeige MMA aktuell
Zeige MMA Monat
Zeige MMA alles
Zeige --A aktuell
Zeige --A Monat
Zeige --A alles
Keine MMA-Anzeige
MMA:
Average (ber die Originaldaten)
MMA-Basis: 13.07.2015 - 13.07.2015
Quicknavigation für Darstellung... ?
Tage:      1T, 2T, 3T, 5T -1T -2T -3T -5T +1T +2T +3T +5T
Wochen: 1W, 2W, 3W -1W -2W -3W +1W +2W +3W
Monate: 1M, 3M, 6M -1M -3M -6M +1M +3M +6M
Jahre:    1J, 3J, 5J, 10J -1J -3J -5J -10J +1J +3J +5J +10J
Nutze für die Darstellung ... ?
Originaldaten oder Mittelwerte auf ...
Stundenbasis Tagesbasis Wochenbasis
Monatsbasis Jahresbasis      Datenbasis: Original-Daten
Darstellen als:
Statistik (Auto) Statistik J:M      Darstellung:
Zur Graphik,    zurück zur Übersicht aller Sensoren.
 
Tabellarische Datenbersicht: ?
 
Sensor: Nr:Datum:Temp:Abs-Feuchte:Windchill:Wind:
Aussen-T/F 1 13-07-2015 05:50:00 14.7 C 11.46 g/m*3 14.7 C 0 km/h
2 13-07-2015 05:55:00 14.7 C 11.46 g/m*3 14.7 C 0 km/h
3 13-07-2015 06:00:00 14.7 C 11.46 g/m*3 14.7 C 0 km/h
4 13-07-2015 06:05:00 14.7 C 11.46 g/m*3 14.7 C 0 km/h
5 13-07-2015 06:10:00 14.8 C 11.53 g/m*3 14.8 C 0 km/h
6 13-07-2015 06:15:00 14.8 C 11.53 g/m*3 14.8 C 0 km/h
7 13-07-2015 06:20:00 14.8 C 11.53 g/m*3 14.8 C 0 km/h
8 13-07-2015 06:25:00 14.8 C 11.53 g/m*3 14.8 C 1.6 km/h
9 13-07-2015 06:30:00 14.8 C 11.53 g/m*3 14.8 C 0 km/h
10 13-07-2015 06:35:00 14.9 C 12.74 g/m*3 14.9 C 1.6 km/h
11 13-07-2015 06:40:00 15 C 12.82 g/m*3 15 C 1.6 km/h
12 13-07-2015 06:45:00 15.1 C 12.9 g/m*3 15.1 C 4.8 km/h
13 13-07-2015 06:50:00 15.1 C 11.61 g/m*3 15.1 C 4.8 km/h
14 13-07-2015 06:55:00 15.2 C 11.68 g/m*3 15.2 C 1.6 km/h
15 13-07-2015 07:00:00 15.2 C 11.68 g/m*3 15.2 C 0 km/h
16 13-07-2015 07:05:00 15.2 C 11.68 g/m*3 15.2 C 0 km/h
17 13-07-2015 07:10:00 15.2 C 11.68 g/m*3 15.2 C 0 km/h
18 13-07-2015 07:15:00 15.2 C 11.68 g/m*3 15.2 C 0 km/h
19 13-07-2015 07:20:00 15.2 C 11.68 g/m*3 15.2 C 3.2 km/h
20 13-07-2015 07:25:00 15.3 C 11.75 g/m*3 15.3 C 4.8 km/h
21 13-07-2015 07:30:00 15.5 C 11.9 g/m*3 15.5 C 4.8 km/h
22 13-07-2015 07:35:00 15.7 C 11.91 g/m*3 15.7 C 6.4 km/h
23 13-07-2015 07:40:00 15.8 C 11.71 g/m*3 15.8 C 9.7 km/h
24 13-07-2015 07:45:00 16.1 C 12.06 g/m*3 16.1 C 8.1 km/h
25 13-07-2015 07:50:00 16.2 C 11.86 g/m*3 16.2 C 4.8 km/h
Sensor: Nr:Datum:Temp:Abs-Feuchte:Windchill:Wind:
Aussen-T/F 26 13-07-2015 07:55:00 16.4 C 12 g/m*3 16.4 C 8.1 km/h
27 13-07-2015 08:00:00 16.5 C 11.94 g/m*3 16.5 C 8.1 km/h
28 13-07-2015 08:05:00 16.5 C 11.8 g/m*3 16.5 C 4.8 km/h
29 13-07-2015 08:10:00 16.6 C 11.87 g/m*3 16.6 C 6.4 km/h
30 13-07-2015 08:15:00 16.8 C 12.01 g/m*3 16.8 C 6.4 km/h
31 13-07-2015 08:20:00 17 C 12.01 g/m*3 17 C 9.7 km/h
32 13-07-2015 08:25:00 17.2 C 12.15 g/m*3 17.2 C 6.4 km/h
33 13-07-2015 08:30:00 17.2 C 12.15 g/m*3 17.2 C 8.1 km/h
34 13-07-2015 08:35:00 17.2 C 12.01 g/m*3 17.2 C 9.7 km/h
35 13-07-2015 08:40:00 17.1 C 12.08 g/m*3 17.1 C 9.7 km/h
36 13-07-2015 08:45:00 16.9 C 12.23 g/m*3 16.9 C 1.6 km/h
37 13-07-2015 08:50:00 16.7 C 12.22 g/m*3 16.7 C 4.8 km/h
38 13-07-2015 08:55:00 16.3 C 12.07 g/m*3 16.3 C 1.6 km/h
39 13-07-2015 09:00:00 16.2 C 12 g/m*3 16.2 C 3.2 km/h
40 13-07-2015 09:05:00 16.1 C 12.06 g/m*3 16.1 C 1.6 km/h
41 13-07-2015 09:10:00 16.1 C 12.06 g/m*3 16.1 C 1.6 km/h
42 13-07-2015 09:15:00 16.2 C 12.14 g/m*3 16.2 C 1.6 km/h
43 13-07-2015 09:20:00 16.2 C 12 g/m*3 16.2 C 1.6 km/h
44 13-07-2015 09:25:00 16.2 C 12 g/m*3 16.2 C 3.2 km/h
45 13-07-2015 09:30:00 16.3 C 12.07 g/m*3 16.3 C 1.6 km/h
46 13-07-2015 09:35:00 16.4 C 12.14 g/m*3 16.4 C 6.4 km/h
47 13-07-2015 09:40:00 16.5 C 12.22 g/m*3 16.5 C 8.1 km/h
48 13-07-2015 09:45:00 16.6 C 12.29 g/m*3 16.6 C 4.8 km/h
49 13-07-2015 09:50:00 16.6 C 12.29 g/m*3 16.6 C 9.7 km/h
50 13-07-2015 09:55:00 16.7 C 12.36 g/m*3 16.7 C 8.1 km/h
Sensor: Nr:Datum:Temp:Abs-Feuchte:Windchill:Wind:
Aussen-T/F 51 13-07-2015 10:00:00 16.9 C 12.51 g/m*3 16.9 C 14.5 km/h
52 13-07-2015 10:05:00 17.1 C 12.66 g/m*3 17.1 C 3.2 km/h
53 13-07-2015 10:10:00 17.1 C 12.66 g/m*3 17.1 C 8.1 km/h
54 13-07-2015 10:15:00 17.1 C 12.66 g/m*3 17.1 C 4.8 km/h
55 13-07-2015 10:20:00 17.2 C 12.74 g/m*3 17.2 C 6.4 km/h
56 13-07-2015 10:25:00 17.2 C 12.45 g/m*3 17.2 C 9.7 km/h
57 13-07-2015 10:30:00 17.2 C 12.45 g/m*3 17.2 C 4.8 km/h
58 13-07-2015 10:35:00 17.3 C 12.52 g/m*3 17.3 C 11.3 km/h
59 13-07-2015 10:40:00 17.3 C 12.37 g/m*3 17.3 C 11.3 km/h
60 13-07-2015 10:45:00 17.5 C 12.52 g/m*3 17.5 C 12.9 km/h
61 13-07-2015 10:50:00 17.7 C 12.37 g/m*3 17.7 C 6.4 km/h
62 13-07-2015 10:55:00 17.8 C 12.45 g/m*3 17.8 C 9.7 km/h
63 13-07-2015 11:00:00 17.9 C 12.52 g/m*3 17.9 C 11.3 km/h
64 13-07-2015 11:05:00 17.9 C 12.52 g/m*3 17.9 C 11.3 km/h
65 13-07-2015 11:10:00 17.9 C 12.37 g/m*3 17.9 C 9.7 km/h
66 13-07-2015 11:15:00 17.9 C 12.37 g/m*3 17.9 C 9.7 km/h
67 13-07-2015 11:20:00 17.9 C 12.37 g/m*3 17.9 C 9.7 km/h
68 13-07-2015 11:25:00 18.1 C 12.52 g/m*3 18.1 C 12.9 km/h
69 13-07-2015 11:30:00 18.1 C 12.36 g/m*3 18.1 C 9.7 km/h
70 13-07-2015 11:35:00 18.2 C 12.43 g/m*3 18.2 C 9.7 km/h
71 13-07-2015 11:40:00 18.2 C 12.43 g/m*3 18.2 C 12.9 km/h
72 13-07-2015 11:45:00 18.2 C 12.43 g/m*3 18.2 C 4.8 km/h
73 13-07-2015 11:50:00 18.2 C 12.43 g/m*3 18.2 C 8.1 km/h
74 13-07-2015 11:55:00 18.2 C 12.59 g/m*3 18.2 C 12.9 km/h
75 13-07-2015 12:00:00 18.3 C 12.51 g/m*3 18.3 C 6.4 km/h
Sensor: Nr:Datum:Temp:Abs-Feuchte:Windchill:Wind:
Aussen-T/F 76 13-07-2015 12:05:00 18.4 C 12.58 g/m*3 18.4 C 6.4 km/h
77 13-07-2015 12:10:00 18.6 C 12.73 g/m*3 18.6 C 11.3 km/h
78 13-07-2015 12:15:00 18.9 C 12.8 g/m*3 18.9 C 16.1 km/h
79 13-07-2015 12:20:00 19 C 12.87 g/m*3 19 C 17.7 km/h
80 13-07-2015 12:25:00 19.2 C 13.03 g/m*3 19.2 C 11.3 km/h
81 13-07-2015 12:30:00 19.3 C 12.94 g/m*3 19.3 C 9.7 km/h
82 13-07-2015 12:35:00 19.6 C 13.17 g/m*3 19.6 C 11.3 km/h
83 13-07-2015 12:40:00 19.6 C 13 g/m*3 19.6 C 9.7 km/h
84 13-07-2015 12:45:00 19.5 C 12.92 g/m*3 19.5 C 9.7 km/h
85 13-07-2015 12:50:00 19.3 C 12.77 g/m*3 19.3 C 9.7 km/h
86 13-07-2015 12:55:00 19.3 C 12.94 g/m*3 19.3 C 11.3 km/h
87 13-07-2015 13:00:00 19.3 C 13.1 g/m*3 19.3 C 16.1 km/h
88 13-07-2015 13:05:00 19.2 C 12.86 g/m*3 19.2 C 9.7 km/h
89 13-07-2015 13:10:00 19.2 C 13.03 g/m*3 19.2 C 14.5 km/h
90 13-07-2015 13:15:00 19.1 C 12.95 g/m*3 19.1 C 11.3 km/h
91 13-07-2015 13:20:00 18.9 C 13.12 g/m*3 18.9 C 12.9 km/h
92 13-07-2015 13:25:00 18.7 C 13.29 g/m*3 18.7 C 9.7 km/h
93 13-07-2015 13:30:00 18.4 C 13.37 g/m*3 18.4 C 12.9 km/h
94 13-07-2015 13:35:00 18.3 C 13.29 g/m*3 18.3 C 6.4 km/h
95 13-07-2015 13:40:00 18.2 C 13.21 g/m*3 18.2 C 14.5 km/h
96 13-07-2015 13:45:00 18.2 C 13.37 g/m*3 18.2 C 9.7 km/h
97 13-07-2015 13:50:00 18.1 C 13.29 g/m*3 18.1 C 12.9 km/h
98 13-07-2015 13:55:00 18.1 C 13.44 g/m*3 18.1 C 9.7 km/h
99 13-07-2015 14:00:00 18.2 C 13.52 g/m*3 18.2 C 9.7 km/h
100 13-07-2015 14:05:00 18.3 C 13.6 g/m*3 18.3 C 9.7 km/h
Sensor: Nr:Datum:Temp:Abs-Feuchte:Windchill:Wind:
Aussen-T/F 101 13-07-2015 14:10:00 18.4 C 13.68 g/m*3 18.4 C 9.7 km/h
102 13-07-2015 14:15:00 18.6 C 13.85 g/m*3 18.6 C 14.5 km/h
103 13-07-2015 14:20:00 18.7 C 13.93 g/m*3 18.7 C 9.7 km/h
104 13-07-2015 14:25:00 18.8 C 13.85 g/m*3 18.8 C 11.3 km/h
105 13-07-2015 14:30:00 18.8 C 13.69 g/m*3 18.8 C 9.7 km/h
106 13-07-2015 14:35:00 18.7 C 13.61 g/m*3 18.7 C 12.9 km/h
107 13-07-2015 14:40:00 18.6 C 13.53 g/m*3 18.6 C 9.7 km/h
108 13-07-2015 14:45:00 18.7 C 13.61 g/m*3 18.7 C 11.3 km/h
109 13-07-2015 14:50:00 18.8 C 13.85 g/m*3 18.8 C 19.3 km/h
110 13-07-2015 14:55:00 18.9 C 13.61 g/m*3 18.9 C 20.9 km/h
111 13-07-2015 15:00:00 18.9 C 13.77 g/m*3 18.9 C 9.7 km/h
112 13-07-2015 15:05:00 19.1 C 13.77 g/m*3 19.1 C 12.9 km/h
113 13-07-2015 15:10:00 19.1 C 13.61 g/m*3 19.1 C 9.7 km/h
114 13-07-2015 15:15:00 19.1 C 13.61 g/m*3 19.1 C 14.5 km/h
115 13-07-2015 15:20:00 19 C 13.53 g/m*3 19 C 6.4 km/h
116 13-07-2015 15:25:00 18.9 C 13.45 g/m*3 18.9 C 11.3 km/h
117 13-07-2015 15:30:00 18.9 C 13.45 g/m*3 18.9 C 4.8 km/h
118 13-07-2015 15:35:00 18.8 C 13.53 g/m*3 18.8 C 11.3 km/h
119 13-07-2015 15:40:00 18.9 C 13.45 g/m*3 18.9 C 6.4 km/h
120 13-07-2015 15:45:00 18.9 C 13.45 g/m*3 18.9 C 6.4 km/h
121 13-07-2015 15:50:00 18.9 C 13.45 g/m*3 18.9 C 6.4 km/h
122 13-07-2015 15:55:00 19 C 13.69 g/m*3 19 C 11.3 km/h
123 13-07-2015 16:00:00 19.1 C 13.61 g/m*3 19.1 C 3.2 km/h
124 13-07-2015 16:05:00 19.1 C 13.44 g/m*3 19.1 C 6.4 km/h
125 13-07-2015 16:10:00 19.1 C 13.61 g/m*3 19.1 C 8.1 km/h
Sensor: Nr:Datum:Temp:Abs-Feuchte:Windchill:Wind:
Aussen-T/F 126 13-07-2015 16:15:00 19.1 C 13.61 g/m*3 19.1 C 3.2 km/h
127 13-07-2015 16:20:00 19.1 C 13.61 g/m*3 19.1 C 1.6 km/h
128 13-07-2015 16:25:00 19.1 C 13.61 g/m*3 19.1 C 3.2 km/h
129 13-07-2015 16:30:00 19.1 C 13.61 g/m*3 19.1 C 1.6 km/h
130 13-07-2015 16:35:00 19.1 C 13.77 g/m*3 19.1 C 6.4 km/h
131 13-07-2015 16:40:00 19.2 C 13.85 g/m*3 19.2 C 3.2 km/h
132 13-07-2015 16:45:00 19.4 C 13.85 g/m*3 19.4 C 6.4 km/h
133 13-07-2015 16:50:00 19.6 C 13.67 g/m*3 19.6 C 9.7 km/h
134 13-07-2015 16:55:00 19.6 C 13.67 g/m*3 19.6 C 3.2 km/h
135 13-07-2015 17:00:00 19.6 C 13.67 g/m*3 19.6 C 4.8 km/h
136 13-07-2015 17:05:00 19.6 C 13.34 g/m*3 19.6 C 8.1 km/h
137 13-07-2015 17:10:00 20 C 13.65 g/m*3 20 C 1.6 km/h
138 13-07-2015 17:15:00 19.9 C 13.92 g/m*3 19.9 C 1.6 km/h
139 13-07-2015 17:20:00 19.8 C 13.84 g/m*3 19.8 C 1.6 km/h
140 13-07-2015 17:25:00 19.8 C 13.49 g/m*3 19.8 C 4.8 km/h
141 13-07-2015 17:30:00 19.8 C 13.84 g/m*3 19.8 C 1.6 km/h
142 13-07-2015 17:35:00 19.7 C 13.75 g/m*3 19.7 C 1.6 km/h
143 13-07-2015 17:40:00 19.7 C 13.75 g/m*3 19.7 C 6.4 km/h
144 13-07-2015 17:45:00 19.7 C 13.75 g/m*3 19.7 C 8.1 km/h
145 13-07-2015 17:50:00 19.9 C 13.92 g/m*3 19.9 C 6.4 km/h
146 13-07-2015 17:55:00 20.1 C 13.73 g/m*3 20.1 C 3.2 km/h
147 13-07-2015 18:00:00 20.2 C 13.46 g/m*3 20.2 C 4.8 km/h
148 13-07-2015 18:05:00 20.4 C 13.62 g/m*3 20.4 C 6.4 km/h
149 13-07-2015 18:10:00 20.4 C 13.27 g/m*3 20.4 C 9.7 km/h
150 13-07-2015 18:15:00 20.4 C 13.27 g/m*3 20.4 C 4.8 km/h
Sensor: Nr:Datum:Temp:Abs-Feuchte:Windchill:Wind:
Aussen-T/F 151 13-07-2015 18:20:00 20.5 C 13.35 g/m*3 20.5 C 14.5 km/h
152 13-07-2015 18:25:00 20.5 C 13.35 g/m*3 20.5 C 12.9 km/h
153 13-07-2015 18:30:00 20.4 C 13.44 g/m*3 20.4 C 11.3 km/h
154 13-07-2015 18:35:00 20.3 C 13.37 g/m*3 20.3 C 8.1 km/h
155 13-07-2015 18:40:00 20.3 C 13.37 g/m*3 20.3 C 8.1 km/h
156 13-07-2015 18:45:00 20.3 C 13.37 g/m*3 20.3 C 9.7 km/h
157 13-07-2015 20:10:00 18.7 C 16.01 g/m*3 18.7 C 1.6 km/h
158 13-07-2015 20:15:00 18.6 C 14.01 g/m*3 18.6 C 1.6 km/h
159 13-07-2015 20:20:00 18.6 C 14.01 g/m*3 18.6 C 1.6 km/h
160 13-07-2015 21:35:00 18.1 C 13.91 g/m*3 18.1 C 4.8 km/h
161 13-07-2015 21:40:00 18.2 C 13.99 g/m*3 18.2 C 1.6 km/h
162 13-07-2015 21:45:00 18.2 C 13.99 g/m*3 18.2 C 1.6 km/h
163 13-07-2015 21:50:00 18.2 C 13.99 g/m*3 18.2 C 1.6 km/h
164 13-07-2015 21:55:00 18.2 C 13.99 g/m*3 18.2 C 3.2 km/h
165 13-07-2015 22:00:00 18.2 C 13.99 g/m*3 18.2 C 3.2 km/h
166 13-07-2015 22:05:00 18.2 C 13.99 g/m*3 18.2 C 1.6 km/h
167 13-07-2015 22:10:00 18.2 C 13.99 g/m*3 18.2 C 1.6 km/h
168 13-07-2015 22:15:00 18.2 C 13.99 g/m*3 18.2 C 1.6 km/h
169 13-07-2015 22:20:00 18.2 C 13.99 g/m*3 18.2 C 4.8 km/h
170 13-07-2015 22:25:00 18.2 C 13.99 g/m*3 18.2 C 3.2 km/h
171 13-07-2015 22:30:00 18.2 C 13.99 g/m*3 18.2 C 1.6 km/h
172 13-07-2015 22:35:00 18.2 C 13.99 g/m*3 18.2 C 1.6 km/h
173 13-07-2015 22:40:00 18.1 C 13.91 g/m*3 18.1 C 4.8 km/h
174 13-07-2015 22:45:00 18.1 C 13.91 g/m*3 18.1 C 0 km/h
175 13-07-2015 22:50:00 18.1 C 13.91 g/m*3 18.1 C 0 km/h
Sensor: Nr:Datum:Temp:Abs-Feuchte:Windchill:Wind:
Aussen-T/F 176 13-07-2015 22:55:00 18 C 13.82 g/m*3 18 C 0 km/h
177 13-07-2015 23:00:00 17.9 C 13.89 g/m*3 17.9 C 0 km/h
178 13-07-2015 23:05:00 17.9 C 13.89 g/m*3 17.9 C 0 km/h
179 13-07-2015 23:10:00 17.8 C 13.81 g/m*3 17.8 C 1.6 km/h
180 13-07-2015 23:15:00 17.8 C 13.81 g/m*3 17.8 C 1.6 km/h
181 13-07-2015 23:20:00 17.8 C 13.81 g/m*3 17.8 C 1.6 km/h
182 13-07-2015 23:25:00 17.8 C 13.81 g/m*3 17.8 C 0 km/h
183 13-07-2015 23:30:00 17.8 C 13.81 g/m*3 17.8 C 1.6 km/h
184 13-07-2015 23:35:00 17.8 C 13.81 g/m*3 17.8 C 8.1 km/h
185 13-07-2015 23:40:00 17.8 C 13.81 g/m*3 17.8 C 3.2 km/h
186 13-07-2015 23:45:00 18.1 C 14.06 g/m*3 18.1 C 3.2 km/h
187 13-07-2015 23:50:00 18.1 C 14.06 g/m*3 18.1 C 0 km/h
188 13-07-2015 23:55:00 18.1 C 14.06 g/m*3 18.1 C 1.6 km/h

Legende:
   Min
   Max


Maximal/Minimal-Werte vom 13.07.2015 - 13.07.2015

Sensor Min Max Avg
Temp
(Aussen-T/F)
14.7 °C
13-07-2015  05:50:00
20.5 °C
13-07-2015  18:20:00
17.94 °C
Abs-Feuchte
(Aussen-T/F)
11.46 g/m*3
13-07-2015  05:50:00
16.01 g/m*3
13-07-2015  20:10:00
12.95 g/m*3
Windchill
(Aussen-T/F)
14.7 C
13-07-2015  05:50:00
20.5 C
13-07-2015  18:20:00
17.84 C

Die Daten stammen von einer Davis Vantage Pro 2 Wetter-Station und werden unter Linux mit der Software wview2wettercgi und aufbereitet. Alle Angaben erfolgen ohne Gewähr für ihre Vollständigkeit oder Richtigkeit.
Kontakt: Rainer Krienke krienke@uni-koblenz.de . Meine Webseiten an der Uni Koblenz oder privat.
Version: $Revision: 0.78 $